Arches Natl Park, Utah
Current Conditions -  °F | °C
As of 6:53 PM on Monday 24 Nov 2014 (Local Time) from KCNY Reporting Station
Clear Clear  
Wind Chill: 26°   Ceiling: Unl
Heat Index: 35°   Visibility: 10mi
Dew Point:   Wind: 13mph
Humidity: 34%   Direction: 290°WNW
Pressure: 30.31"   Gusts: NA
Location:  38.7°N, 109.75°W
Report Text: KCNY 250153Z AUTO 29011KT 10SM CLR 02/M13 A3031 RMK AO2 SLP290 T00171128
Loading
Personal Weather Stations






























Interactive Weather Map New forecast layout! Learn more

10-Day Weather Forecast

Advertisements
Track Severe Weather on mobile